Observations

°F / -17.8 °C

°F / -17.8 °C

mile(s)

Observations

Surface


Raw METARs

2021/06/14 21:00
PKWA 142100Z AUTO 10015G18KT 10SM SCT025 BKN047 OVC080 29/25 A2989 RMK AO2 T02880248

Translated METAR



Upper Air


Latest Skew-T

Skew T Diagram

Latest Data File